createdAt,value
2019-04-27T00:00:32.879Z,2.83
2019-04-27T00:03:07.484Z,2.97
2019-04-27T00:05:46.392Z,2.50
2019-04-27T00:08:35.122Z,3.10
2019-04-27T00:11:05.175Z,3.63
2019-04-27T00:13:34.797Z,5.17
2019-04-27T00:16:15.498Z,3.97
2019-04-27T00:18:49.704Z,5.20
2019-04-27T00:21:23.752Z,5.30
2019-04-27T00:23:54.094Z,3.83
2019-04-27T00:26:23.330Z,5.00
2019-04-27T00:28:53.717Z,4.17
2019-04-27T00:31:23.424Z,5.73
2019-04-27T00:33:53.579Z,3.47
2019-04-27T00:36:43.524Z,5.33
2019-04-27T00:39:14.006Z,4.80
2019-04-27T00:41:43.081Z,4.87
2019-04-27T00:44:13.500Z,4.83
2019-04-27T00:46:43.128Z,4.03
2019-04-27T00:49:13.665Z,4.50
2019-04-27T00:51:43.369Z,4.50
2019-04-27T00:54:13.612Z,4.93
2019-04-27T00:57:03.193Z,5.40
2019-04-27T00:59:49.983Z,5.67
2019-04-27T01:02:20.324Z,4.83
2019-04-27T01:04:48.952Z,4.87
2019-04-27T01:07:17.776Z,5.67
2019-04-27T01:09:46.523Z,6.10
2019-04-27T01:12:15.739Z,5.73
2019-04-27T01:14:45.121Z,6.00
2019-04-27T01:17:13.946Z,5.40
2019-04-27T01:19:42.500Z,4.50
2019-04-27T01:22:11.140Z,5.77
2019-04-27T01:24:39.972Z,5.47
2019-04-27T01:27:25.527Z,5.13
2019-04-27T01:29:55.930Z,4.53
2019-04-27T01:32:24.573Z,4.37
2019-04-27T01:34:53.213Z,5.53
2019-04-27T01:37:21.882Z,4.93
2019-04-27T01:39:50.534Z,5.37
2019-04-27T01:42:19.582Z,5.80
2019-04-27T01:44:50.880Z,4.87
2019-04-27T01:47:18.898Z,5.33
2019-04-27T01:49:49.398Z,5.27
2019-04-27T01:52:19.418Z,5.50
2019-04-27T01:54:49.553Z,4.70
2019-04-27T01:57:19.400Z,5.30
2019-04-27T01:59:48.905Z,6.10
2019-04-27T02:02:19.758Z,4.90
2019-04-27T02:07:44.674Z,5.17
2019-04-27T02:10:14.611Z,5.53
2019-04-27T02:12:44.143Z,4.80
2019-04-27T02:15:13.057Z,4.33
2019-04-27T02:17:41.779Z,5.23
2019-04-27T02:20:10.571Z,5.07
2019-04-27T02:22:39.333Z,5.77
2019-04-27T02:25:09.116Z,4.80
2019-04-27T02:27:39.426Z,4.20
2019-04-27T02:30:27.169Z,4.40
2019-04-27T02:33:12.989Z,4.30
2019-04-27T02:35:42.134Z,4.80
2019-04-27T02:38:11.006Z,3.90
2019-04-27T02:40:51.528Z,4.80
2019-04-27T02:43:22.232Z,3.83
2019-04-27T02:45:51.099Z,4.63
2019-04-27T02:48:20.102Z,4.47
2019-04-27T02:50:50.461Z,5.13
2019-04-27T02:53:20.762Z,4.27
2019-04-27T02:55:50.038Z,4.17
2019-04-27T02:58:21.537Z,4.20
2019-04-27T03:00:50.151Z,3.73
2019-04-27T03:03:20.404Z,3.87
2019-04-27T03:05:50.407Z,3.23
2019-04-27T03:08:20.108Z,4.80
2019-04-27T03:10:50.285Z,4.53
2019-04-27T03:13:24.128Z,3.50
2019-04-27T03:16:00.672Z,4.17
2019-04-27T03:18:40.524Z,3.37
2019-04-27T03:21:19.823Z,3.17
2019-04-27T03:23:49.939Z,3.80
2019-04-27T03:26:22.477Z,3.57
2019-04-27T03:28:51.740Z,3.57
2019-04-27T03:31:21.839Z,3.07
2019-04-27T03:33:58.250Z,4.10
2019-04-27T03:36:21.628Z,3.23
2019-04-27T03:38:50.576Z,3.10
2019-04-27T03:41:19.891Z,3.20
2019-04-27T03:43:50.269Z,3.30
2019-04-27T03:46:20.447Z,4.17
2019-04-27T03:49:09.788Z,3.27
2019-04-27T03:51:46.273Z,3.27
2019-04-27T03:54:21.547Z,3.47
2019-04-27T03:56:50.781Z,2.40
2019-04-27T03:59:20.881Z,3.90
2019-04-27T04:01:50.668Z,2.30
2019-04-27T04:04:20.079Z,3.03
2019-04-27T04:06:49.517Z,3.17
2019-04-27T04:09:19.924Z,3.67
2019-04-27T04:11:53.151Z,2.70
2019-04-27T04:14:30.207Z,3.50
2019-04-27T04:17:02.804Z,2.73
2019-04-27T04:19:47.379Z,2.80
2019-04-27T04:22:01.318Z,2.60
2019-04-27T04:24:31.828Z,3.03
2019-04-27T04:27:00.319Z,3.10
2019-04-27T04:29:30.661Z,2.80
2019-04-27T04:32:00.465Z,3.33
2019-04-27T04:34:29.922Z,2.77
2019-04-27T04:37:00.455Z,3.03
2019-04-27T04:39:29.738Z,3.23
2019-04-27T04:42:02.997Z,2.23
2019-04-27T04:44:51.452Z,3.03
2019-04-27T04:47:24.544Z,3.30
2019-04-27T04:50:07.344Z,3.33
2019-04-27T04:52:23.525Z,2.70
2019-04-27T04:54:52.170Z,2.63
2019-04-27T04:57:21.969Z,3.13
2019-04-27T04:59:51.505Z,3.30
2019-04-27T05:02:20.224Z,3.73
2019-04-27T05:04:49.217Z,3.17
2019-04-27T05:07:19.429Z,2.67
2019-04-27T05:09:48.578Z,3.30
2019-04-27T05:12:18.970Z,3.40
2019-04-27T05:14:51.947Z,3.00
2019-04-27T05:17:20.553Z,3.23
2019-04-27T05:19:49.764Z,3.27
2019-04-27T05:22:19.521Z,2.30
2019-04-27T05:24:49.995Z,2.50
2019-04-27T05:27:19.108Z,3.20
2019-04-27T05:29:48.832Z,3.13
2019-04-27T05:32:18.857Z,3.03
2019-04-27T05:34:49.528Z,3.17
2019-04-27T05:37:27.701Z,3.17
2019-04-27T05:39:48.777Z,3.00
2019-04-27T05:42:20.021Z,2.97
2019-04-27T05:44:59.079Z,2.60
2019-04-27T05:47:29.403Z,3.30
2019-04-27T05:49:59.596Z,3.07
2019-04-27T05:52:29.448Z,3.80
2019-04-27T05:54:59.170Z,3.47
2019-04-27T05:57:30.747Z,3.23
2019-04-27T06:00:01.145Z,3.70
2019-04-27T06:02:30.352Z,3.50
2019-04-27T06:05:00.117Z,3.43
2019-04-27T06:07:30.173Z,3.07
2019-04-27T06:09:59.797Z,4.13
2019-04-27T06:12:29.616Z,4.33
2019-04-27T06:14:59.826Z,3.03
2019-04-27T06:17:29.925Z,3.97
2019-04-27T06:19:59.612Z,3.87
2019-04-27T06:22:29.283Z,4.03
2019-04-27T06:25:00.109Z,4.10
2019-04-27T06:27:30.752Z,3.53
2019-04-27T06:29:59.472Z,4.27
2019-04-27T06:32:29.529Z,4.40
2019-04-27T06:34:59.057Z,4.73
2019-04-27T06:37:29.304Z,3.27
2019-04-27T06:39:59.662Z,3.60
2019-04-27T06:42:29.631Z,3.20
2019-04-27T06:44:59.961Z,3.83
2019-04-27T06:47:29.623Z,3.13
2019-04-27T06:49:58.807Z,2.73
2019-04-27T06:52:29.246Z,3.47
2019-04-27T06:54:58.164Z,2.10
2019-04-27T06:57:26.719Z,2.13
2019-04-27T06:59:55.460Z,2.20
2019-04-27T07:02:24.103Z,1.93
2019-04-27T07:04:52.820Z,2.10
2019-04-27T07:07:21.455Z,1.60
2019-04-27T07:09:50.007Z,2.03
2019-04-27T07:12:19.155Z,1.90
2019-04-27T07:14:52.853Z,2.50
2019-04-27T07:17:25.593Z,1.87
2019-04-27T07:19:54.156Z,1.97
2019-04-27T07:22:22.711Z,1.57
2019-04-27T07:24:51.379Z,2.00
2019-04-27T07:27:21.304Z,1.93
2019-04-27T07:29:49.955Z,1.57
2019-04-27T07:32:19.248Z,1.50
2019-04-27T07:34:49.665Z,1.40
2019-04-27T07:37:19.603Z,1.20
2019-04-27T07:39:49.204Z,1.50
2019-04-27T07:42:19.278Z,1.20
2019-04-27T07:44:50.146Z,1.10
2019-04-27T07:47:23.421Z,1.40
2019-04-27T07:49:52.144Z,1.20
2019-04-27T07:54:40.932Z,1.60
2019-04-27T07:57:09.859Z,1.10
2019-04-27T07:59:41.671Z,1.23
2019-04-27T08:02:11.039Z,1.50
2019-04-27T08:04:40.069Z,1.33
2019-04-27T08:07:09.216Z,1.53
2019-04-27T08:09:39.643Z,1.33
2019-04-27T08:12:10.717Z,2.03
2019-04-27T08:14:39.002Z,1.43
2019-04-27T08:17:09.612Z,1.60
2019-04-27T08:19:39.477Z,1.60
2019-04-27T08:22:09.578Z,1.53
2019-04-27T08:24:39.607Z,1.83
2019-04-27T08:27:26.318Z,1.70
2019-04-27T08:30:13.144Z,1.30
2019-04-27T08:32:46.504Z,1.00
2019-04-27T08:35:15.286Z,1.50
2019-04-27T08:37:44.078Z,1.67
2019-04-27T08:40:12.898Z,1.50
2019-04-27T08:42:41.511Z,1.90
2019-04-27T08:45:10.329Z,1.50
2019-04-27T08:47:41.381Z,1.63
2019-04-27T08:50:11.758Z,1.50
2019-04-27T08:52:42.109Z,1.63
2019-04-27T08:55:11.174Z,1.73
2019-04-27T08:57:39.899Z,1.85
2019-04-27T09:00:09.557Z,1.80
2019-04-27T09:02:44.388Z,2.27
2019-04-27T09:05:09.603Z,1.67
2019-04-27T09:07:40.015Z,1.40
2019-04-27T09:10:19.631Z,1.97
2019-04-27T09:13:02.416Z,1.50
2019-04-27T09:15:35.706Z,2.20
2019-04-27T09:18:04.496Z,1.70
2019-04-27T09:20:51.362Z,1.77
2019-04-27T09:23:19.991Z,1.60
2019-04-27T09:25:49.599Z,2.30
2019-04-27T09:28:20.121Z,2.53
2019-04-27T09:30:49.804Z,2.57
2019-04-27T09:33:18.656Z,2.17
2019-04-27T09:35:47.312Z,2.50
2019-04-27T09:38:16.746Z,2.87
2019-04-27T09:40:46.615Z,2.07
2019-04-27T09:43:15.752Z,1.90
2019-04-27T09:45:44.535Z,2.00
2019-04-27T09:48:13.279Z,2.67
2019-04-27T09:50:42.089Z,2.87
2019-04-27T09:53:10.788Z,2.57
2019-04-27T09:55:39.509Z,2.27
2019-04-27T09:58:08.290Z,3.03
2019-04-27T10:00:37.458Z,2.27
2019-04-27T10:03:06.713Z,2.67
2019-04-27T10:05:36.728Z,2.30
2019-04-27T10:08:06.224Z,2.50
2019-04-27T10:10:36.975Z,2.60
2019-04-27T10:13:07.014Z,2.53
2019-04-27T10:15:35.850Z,3.00
2019-04-27T10:18:06.086Z,3.60
2019-04-27T10:20:40.375Z,3.07
2019-04-27T10:23:06.257Z,2.77
2019-04-27T10:25:35.522Z,2.83
2019-04-27T10:33:58.172Z,2.63
2019-04-27T10:36:39.068Z,2.80
2019-04-27T10:39:09.413Z,1.90
2019-04-27T10:41:38.057Z,2.40
2019-04-27T10:44:10.002Z,2.27
2019-04-27T10:46:38.800Z,2.43
2019-04-27T10:49:08.487Z,2.60
2019-04-27T10:51:37.234Z,2.77
2019-04-27T10:54:06.529Z,2.30
2019-04-27T10:56:36.211Z,2.70
2019-04-27T10:59:06.497Z,2.50
2019-04-27T11:01:36.178Z,2.07
2019-04-27T11:04:22.037Z,2.63
2019-04-27T11:06:55.043Z,2.60
2019-04-27T11:09:25.653Z,2.50
2019-04-27T11:11:56.485Z,2.10
2019-04-27T11:14:26.163Z,2.00
2019-04-27T11:16:56.055Z,3.93
2019-04-27T11:19:26.660Z,1.97
2019-04-27T11:21:55.292Z,2.20
2019-04-27T11:24:23.989Z,1.83
2019-04-27T11:26:52.596Z,2.10
2019-04-27T11:29:21.313Z,1.97
2019-04-27T11:31:50.079Z,2.00
2019-04-27T11:34:19.756Z,2.17
2019-04-27T11:36:50.230Z,2.10
2019-04-27T11:39:21.125Z,1.90
2019-04-27T11:41:49.419Z,1.93
2019-04-27T11:44:18.156Z,1.90
2019-04-27T11:46:47.579Z,2.10
2019-04-27T11:49:17.873Z,1.60
2019-04-27T11:51:46.706Z,1.67
2019-04-27T11:54:15.334Z,1.80
2019-04-27T11:56:44.022Z,1.57
2019-04-27T11:59:12.739Z,1.37
2019-04-27T12:01:41.670Z,1.53
2019-04-27T12:07:21.856Z,1.60
2019-04-27T12:09:50.570Z,1.60
2019-04-27T12:12:21.751Z,1.50
2019-04-27T12:14:49.823Z,1.20
2019-04-27T12:17:18.471Z,1.50
2019-04-27T12:19:47.204Z,1.90
2019-04-27T12:22:16.287Z,2.03
2019-04-27T12:24:45.746Z,1.80
2019-04-27T12:27:19.114Z,1.90
2019-04-27T12:32:36.816Z,1.50
2019-04-27T12:35:06.830Z,1.43
2019-04-27T12:37:35.810Z,2.03
2019-04-27T12:40:26.823Z,1.67
2019-04-27T12:42:55.994Z,1.47
2019-04-27T12:45:26.537Z,1.43
2019-04-27T12:47:56.622Z,1.80
2019-04-27T12:50:26.188Z,1.70
2019-04-27T12:52:56.516Z,1.63
2019-04-27T12:55:29.288Z,1.83
2019-04-27T12:58:08.166Z,2.07
2019-04-27T13:00:38.690Z,1.57
2019-04-27T13:03:07.575Z,1.70
2019-04-27T13:05:36.458Z,1.97
2019-04-27T13:08:05.338Z,1.93
2019-04-27T13:10:53.167Z,1.50
2019-04-27T13:13:22.287Z,1.73
2019-04-27T13:15:50.986Z,1.77
2019-04-27T13:18:19.747Z,1.23
2019-04-27T13:20:48.393Z,1.77
2019-04-27T13:23:17.180Z,1.80
2019-04-27T13:25:46.128Z,2.00
2019-04-27T13:28:14.876Z,2.20
2019-04-27T13:30:43.426Z,2.00
2019-04-27T13:33:12.084Z,1.87
2019-04-27T13:35:40.765Z,1.87
2019-04-27T13:38:09.557Z,1.60
2019-04-27T13:40:41.649Z,2.43
2019-04-27T13:43:11.878Z,2.23
2019-04-27T13:46:01.710Z,2.70
2019-04-27T13:48:32.069Z,2.53
2019-04-27T13:51:08.470Z,2.40
2019-04-27T13:53:37.175Z,1.90
2019-04-27T13:56:14.698Z,1.60
2019-04-27T13:58:44.380Z,1.97
2019-04-27T14:01:12.996Z,2.00
2019-04-27T14:03:41.698Z,1.80
2019-04-27T14:06:10.435Z,1.80
2019-04-27T14:08:39.143Z,2.10
2019-04-27T14:11:09.582Z,1.80
2019-04-27T14:13:39.112Z,1.67
2019-04-27T14:16:08.699Z,1.77
2019-04-27T14:18:38.413Z,2.00
2019-04-27T14:21:09.300Z,2.00
2019-04-27T14:23:38.616Z,1.73
2019-04-27T14:26:13.542Z,2.00
2019-04-27T14:28:42.327Z,1.50
2019-04-27T14:31:11.015Z,1.73
2019-04-27T14:33:39.867Z,2.73
2019-04-27T14:36:08.632Z,2.10
2019-04-27T14:38:37.612Z,3.20
2019-04-27T14:41:06.793Z,2.00
2019-04-27T14:43:35.578Z,2.10
2019-04-27T14:46:04.534Z,1.83
2019-04-27T14:48:33.232Z,1.30
2019-04-27T14:51:02.241Z,1.97
2019-04-27T14:53:31.056Z,1.93
2019-04-27T14:55:59.843Z,1.90
2019-04-27T14:58:28.641Z,1.70
2019-04-27T15:00:58.477Z,1.73
2019-04-27T15:03:27.418Z,2.17
2019-04-27T15:05:56.331Z,1.50
2019-04-27T15:08:25.560Z,1.50
2019-04-27T15:10:54.452Z,1.80
2019-04-27T15:13:24.705Z,1.60
2019-04-27T15:15:53.496Z,1.70
2019-04-27T15:18:23.841Z,1.83
2019-04-27T15:20:52.670Z,1.70
2019-04-27T15:23:21.289Z,1.63
2019-04-27T15:25:50.185Z,1.80
2019-04-27T15:28:20.522Z,1.57
2019-04-27T15:30:53.804Z,1.80
2019-04-27T15:33:40.919Z,1.87
2019-04-27T15:36:52.659Z,1.97
2019-04-27T15:39:26.969Z,1.70
2019-04-27T15:42:08.203Z,2.20
2019-04-27T15:44:36.563Z,1.77
2019-04-27T15:47:08.464Z,2.63
2019-04-27T15:49:36.218Z,2.13
2019-04-27T15:52:04.929Z,1.87
2019-04-27T15:54:33.631Z,2.13
2019-04-27T15:57:05.756Z,1.47
2019-04-27T15:59:37.772Z,2.77
2019-04-27T16:02:05.427Z,1.87
2019-04-27T16:04:34.837Z,1.43
2019-04-27T16:07:17.539Z,2.20
2019-04-27T16:09:43.855Z,1.40
2019-04-27T16:12:12.990Z,1.90
2019-04-27T16:14:44.125Z,1.83
2019-04-27T16:17:12.039Z,1.77
2019-04-27T16:19:46.745Z,1.70
2019-04-27T16:22:11.679Z,1.93
2019-04-27T16:24:40.443Z,2.30
2019-04-27T16:27:09.301Z,2.77
2019-04-27T16:29:38.983Z,3.07
2019-04-27T16:32:11.384Z,1.70
2019-04-27T16:34:41.238Z,2.07
2019-04-27T16:37:14.035Z,2.03
2019-04-27T16:39:45.791Z,2.47
2019-04-27T16:42:14.319Z,1.93
2019-04-27T16:44:49.563Z,2.13
2019-04-27T16:47:18.854Z,2.07
2019-04-27T16:49:48.428Z,2.20
2019-04-27T16:52:17.562Z,2.43
2019-04-27T16:54:49.910Z,1.73
2019-04-27T16:57:21.709Z,2.13
2019-04-27T17:02:25.132Z,2.33
2019-04-27T17:04:55.646Z,2.07
2019-04-27T17:07:24.219Z,1.50
2019-04-27T17:09:52.899Z,1.40
2019-04-27T17:12:23.892Z,1.93
2019-04-27T17:12:41.086Z,2.33
2019-04-27T17:15:12.407Z,1.50
2019-04-27T17:20:32.679Z,1.93
2019-04-27T17:23:01.265Z,2.27
2019-04-27T17:25:38.940Z,1.63
2019-04-27T17:28:08.039Z,2.27
2019-04-27T17:30:40.295Z,2.00
2019-04-27T17:33:11.711Z,1.60
2019-04-27T17:35:42.598Z,1.83
2019-04-27T17:38:12.417Z,1.50
2019-04-27T17:40:40.197Z,1.73
2019-04-27T17:43:10.555Z,1.77
2019-04-27T17:45:39.737Z,2.50
2019-04-27T17:48:10.803Z,2.17
2019-04-27T17:50:39.036Z,1.77
2019-04-27T17:53:08.124Z,1.23
2019-04-27T17:55:36.981Z,2.03
2019-04-27T17:58:06.626Z,1.90
2019-04-27T18:00:42.898Z,2.27
2019-04-27T18:03:08.163Z,2.10
2019-04-27T18:05:36.588Z,1.83
2019-04-27T18:08:05.308Z,1.83
2019-04-27T18:10:34.050Z,2.13
2019-04-27T18:13:02.834Z,1.80
2019-04-27T18:15:31.635Z,1.60
2019-04-27T18:18:04.762Z,1.60
2019-04-27T18:20:33.456Z,1.90
2019-04-27T18:23:15.261Z,1.80
2019-04-27T18:25:44.103Z,1.83
2019-04-27T18:28:15.995Z,1.83
2019-04-27T18:30:46.481Z,1.80
2019-04-27T18:33:15.173Z,1.60
2019-04-27T18:35:43.823Z,1.77
2019-04-27T18:38:12.580Z,1.97
2019-04-27T18:40:41.364Z,1.70
2019-04-27T18:43:12.469Z,1.70
2019-04-27T18:45:44.891Z,2.20
2019-04-27T18:48:13.735Z,1.77
2019-04-27T18:50:52.165Z,2.10
2019-04-27T18:53:34.887Z,2.20
2019-04-27T18:56:05.381Z,2.07
2019-04-27T18:58:33.867Z,2.23
2019-04-27T19:01:03.057Z,1.70
2019-04-27T19:03:31.873Z,1.87
2019-04-27T19:06:00.540Z,1.90
2019-04-27T19:08:29.153Z,2.30
2019-04-27T19:11:00.151Z,2.67
2019-04-27T19:13:28.266Z,2.30
2019-04-27T19:15:57.886Z,2.27
2019-04-27T19:18:27.283Z,1.23
2019-04-27T19:20:58.344Z,1.73
2019-04-27T19:23:27.473Z,1.80
2019-04-27T19:25:58.541Z,1.80
2019-04-27T19:28:31.853Z,1.93
2019-04-27T19:31:18.910Z,2.43
2019-04-27T19:33:48.164Z,1.70
2019-04-27T19:36:16.932Z,1.60
2019-04-27T19:38:45.653Z,1.97
2019-04-27T19:41:14.426Z,1.63
2019-04-27T19:43:43.163Z,1.30
2019-04-27T19:46:11.795Z,1.60
2019-04-27T19:48:40.599Z,2.00
2019-04-27T19:51:09.285Z,1.33
2019-04-27T19:53:39.367Z,1.87
2019-04-27T19:56:08.163Z,1.40
2019-04-27T19:58:38.533Z,1.40
2019-04-27T20:01:11.940Z,2.17
2019-04-27T20:03:57.995Z,1.60
2019-04-27T20:06:29.252Z,2.60
2019-04-27T20:09:02.131Z,2.57
2019-04-27T20:11:30.840Z,2.10
2019-04-27T20:14:00.798Z,1.90
2019-04-27T20:16:29.581Z,2.03
2019-04-27T20:18:58.192Z,2.57
2019-04-27T20:21:28.284Z,1.90
2019-04-27T20:23:56.940Z,1.50
2019-04-27T20:26:25.596Z,1.80
2019-04-27T20:28:54.291Z,2.07
2019-04-27T20:31:22.990Z,1.63
2019-04-27T20:33:53.864Z,1.57
2019-04-27T20:36:22.096Z,1.70
2019-04-27T20:38:50.990Z,1.73
2019-04-27T20:41:21.708Z,1.80
2019-04-27T20:43:51.011Z,1.97
2019-04-27T20:46:22.535Z,2.47
2019-04-27T20:48:51.223Z,1.50
2019-04-27T20:54:01.748Z,1.17
2019-04-27T20:56:30.565Z,2.20
2019-04-27T20:59:05.216Z,2.00
2019-04-27T21:01:34.092Z,1.80
2019-04-27T21:04:04.035Z,1.60
2019-04-27T21:06:34.391Z,2.30
2019-04-27T21:09:04.853Z,2.77
2019-04-27T21:11:41.126Z,2.07
2019-04-27T21:14:11.216Z,1.90
2019-04-27T21:16:41.323Z,2.17
2019-04-27T21:19:31.199Z,2.03
2019-04-27T21:22:01.255Z,2.00
2019-04-27T21:24:31.172Z,2.10
2019-04-27T21:27:00.063Z,2.50
2019-04-27T21:29:28.688Z,2.00
2019-04-27T21:31:57.266Z,2.63
2019-04-27T21:34:25.776Z,2.80
2019-04-27T21:36:54.461Z,2.23
2019-04-27T21:39:23.107Z,2.30
2019-04-27T21:44:57.314Z,2.40
2019-04-27T21:47:26.043Z,2.30
2019-04-27T21:49:54.657Z,2.27
2019-04-27T21:52:24.943Z,1.70
2019-04-27T21:54:54.749Z,2.70
2019-04-27T21:57:23.364Z,2.73
2019-04-27T21:59:52.064Z,2.73
2019-04-27T22:02:21.933Z,2.20
2019-04-27T22:04:51.803Z,2.13
2019-04-27T22:07:21.565Z,2.70
2019-04-27T22:09:51.760Z,2.73
2019-04-27T22:12:21.348Z,2.30
2019-04-27T22:14:50.982Z,2.57
2019-04-27T22:17:21.051Z,3.00
2019-04-27T22:19:51.428Z,2.10
2019-04-27T22:25:07.449Z,2.53
2019-04-27T22:27:42.379Z,2.93
2019-04-27T22:30:11.187Z,2.53
2019-04-27T22:32:41.429Z,3.17
2019-04-27T22:35:10.424Z,2.50
2019-04-27T22:37:39.120Z,2.70
2019-04-27T22:40:15.683Z,2.40
2019-04-27T22:43:02.005Z,2.60
2019-04-27T22:45:32.306Z,2.70
2019-04-27T22:48:01.354Z,2.70
2019-04-27T22:50:31.282Z,2.40
2019-04-27T22:53:00.058Z,2.33
2019-04-27T22:55:28.676Z,2.30
2019-04-27T22:58:01.719Z,2.07
2019-04-27T23:00:37.823Z,3.27
2019-04-27T23:03:08.370Z,3.03
2019-04-27T23:05:37.057Z,2.50
2019-04-27T23:08:05.831Z,2.10
2019-04-27T23:10:34.523Z,2.30
2019-04-27T23:13:03.160Z,1.90
2019-04-27T23:15:33.496Z,3.00
2019-04-27T23:18:02.133Z,2.67
2019-04-27T23:20:32.122Z,2.83
2019-04-27T23:23:02.776Z,2.63
2019-04-27T23:25:31.256Z,3.13
2019-04-27T23:28:12.726Z,2.97
2019-04-27T23:30:43.048Z,2.73
2019-04-27T23:33:11.666Z,2.60
2019-04-27T23:35:41.370Z,1.97
2019-04-27T23:38:17.230Z,2.40
2019-04-27T23:40:41.780Z,2.50
2019-04-27T23:43:11.501Z,3.33
2019-04-27T23:45:41.948Z,3.83
2019-04-27T23:48:12.319Z,2.90
2019-04-27T23:50:43.352Z,3.20
2019-04-27T23:53:16.210Z,2.73
2019-04-27T23:55:44.776Z,3.20
2019-04-27T23:58:13.498Z,3.30
